sensor_id;sensor_type;location;lat;lon;timestamp;P1;durP1;ratioP1;P2;durP2;ratioP2
76606;SDS011;65498;50.916;4.698;2022-12-18T00:01:26;13.83;;;8.63;;
76606;SDS011;65498;50.916;4.698;2022-12-18T00:03:59;11.38;;;7.58;;
76606;SDS011;65498;50.916;4.698;2022-12-18T00:06:29;13.03;;;8.63;;
76606;SDS011;65498;50.916;4.698;2022-12-18T00:08:58;12.80;;;8.30;;
76606;SDS011;65498;50.916;4.698;2022-12-18T00:11:28;13.43;;;8.33;;
76606;SDS011;65498;50.916;4.698;2022-12-18T00:13:57;13.58;;;8.13;;
76606;SDS011;65498;50.916;4.698;2022-12-18T00:16:27;13.18;;;8.63;;
76606;SDS011;65498;50.916;4.698;2022-12-18T00:18:57;13.75;;;8.35;;
76606;SDS011;65498;50.916;4.698;2022-12-18T00:21:27;13.40;;;9.10;;
76606;SDS011;65498;50.916;4.698;2022-12-18T00:23:55;12.65;;;8.15;;
76606;SDS011;65498;50.916;4.698;2022-12-18T00:26:24;13.65;;;8.90;;
76606;SDS011;65498;50.916;4.698;2022-12-18T00:28:53;13.38;;;8.98;;
76606;SDS011;65498;50.916;4.698;2022-12-18T00:31:23;14.13;;;9.23;;
76606;SDS011;65498;50.916;4.698;2022-12-18T00:33:53;12.30;;;8.25;;
76606;SDS011;65498;50.916;4.698;2022-12-18T00:36:23;12.25;;;7.55;;
76606;SDS011;65498;50.916;4.698;2022-12-18T00:38:56;13.43;;;8.30;;
76606;SDS011;65498;50.916;4.698;2022-12-18T00:41:25;14.47;;;8.65;;
76606;SDS011;65498;50.916;4.698;2022-12-18T00:44:12;12.37;;;7.85;;
76606;SDS011;65498;50.916;4.698;2022-12-18T00:46:42;11.83;;;7.58;;
76606;SDS011;65498;50.916;4.698;2022-12-18T00:49:10;13.00;;;8.68;;
76606;SDS011;65498;50.916;4.698;2022-12-18T00:51:38;13.45;;;8.70;;
76606;SDS011;65498;50.916;4.698;2022-12-18T00:54:06;11.33;;;7.80;;
76606;SDS011;65498;50.916;4.698;2022-12-18T00:56:35;13.95;;;8.90;;
76606;SDS011;65498;50.916;4.698;2022-12-18T00:59:06;13.90;;;8.30;;
76606;SDS011;65498;50.916;4.698;2022-12-18T01:01:33;13.93;;;8.68;;
76606;SDS011;65498;50.916;4.698;2022-12-18T01:04:02;13.35;;;8.03;;
76606;SDS011;65498;50.916;4.698;2022-12-18T01:06:30;13.15;;;8.80;;
76606;SDS011;65498;50.916;4.698;2022-12-18T01:08:57;12.53;;;7.62;;
76606;SDS011;65498;50.916;4.698;2022-12-18T01:11:25;13.68;;;8.55;;
76606;SDS011;65498;50.916;4.698;2022-12-18T01:13:53;13.68;;;8.23;;
76606;SDS011;65498;50.916;4.698;2022-12-18T01:16:21;12.40;;;7.97;;
76606;SDS011;65498;50.916;4.698;2022-12-18T01:18:51;13.53;;;7.87;;
76606;SDS011;65498;50.916;4.698;2022-12-18T01:21:19;12.80;;;8.00;;
76606;SDS011;65498;50.916;4.698;2022-12-18T01:23:50;14.30;;;8.48;;
76606;SDS011;65498;50.916;4.698;2022-12-18T01:26:20;11.85;;;7.67;;
76606;SDS011;65498;50.916;4.698;2022-12-18T01:28:48;12.53;;;7.85;;
76606;SDS011;65498;50.916;4.698;2022-12-18T01:31:19;12.47;;;7.33;;
76606;SDS011;65498;50.916;4.698;2022-12-18T01:33:49;12.93;;;7.58;;
76606;SDS011;65498;50.916;4.698;2022-12-18T01:36:19;12.75;;;7.50;;
76606;SDS011;65498;50.916;4.698;2022-12-18T01:38:51;13.00;;;7.83;;
76606;SDS011;65498;50.916;4.698;2022-12-18T01:41:20;13.10;;;7.37;;
76606;SDS011;65498;50.916;4.698;2022-12-18T01:43:51;12.53;;;7.47;;
76606;SDS011;65498;50.916;4.698;2022-12-18T01:46:21;11.97;;;7.62;;
76606;SDS011;65498;50.916;4.698;2022-12-18T01:49:00;11.40;;;7.28;;
76606;SDS011;65498;50.916;4.698;2022-12-18T01:51:23;11.00;;;6.72;;
76606;SDS011;65498;50.916;4.698;2022-12-18T01:53:52;12.93;;;7.03;;
76606;SDS011;65498;50.916;4.698;2022-12-18T01:56:20;17.07;;;9.83;;
76606;SDS011;65498;50.916;4.698;2022-12-18T01:58:53;19.98;;;8.75;;
76606;SDS011;65498;50.916;4.698;2022-12-18T02:01:22;14.83;;;8.60;;
76606;SDS011;65498;50.916;4.698;2022-12-18T02:03:51;12.90;;;7.60;;
76606;SDS011;65498;50.916;4.698;2022-12-18T02:06:20;19.75;;;8.68;;
76606;SDS011;65498;50.916;4.698;2022-12-18T02:09:12;17.48;;;8.98;;
76606;SDS011;65498;50.916;4.698;2022-12-18T02:11:47;18.90;;;8.05;;
76606;SDS011;65498;50.916;4.698;2022-12-18T02:14:19;15.58;;;8.15;;
76606;SDS011;65498;50.916;4.698;2022-12-18T02:19:42;12.88;;;7.42;;
76606;SDS011;65498;50.916;4.698;2022-12-18T02:22:26;14.80;;;7.97;;
76606;SDS011;65498;50.916;4.698;2022-12-18T02:28:12;18.87;;;8.50;;
76606;SDS011;65498;50.916;4.698;2022-12-18T02:30:42;12.53;;;7.10;;
76606;SDS011;65498;50.916;4.698;2022-12-18T02:33:11;12.10;;;6.95;;
76606;SDS011;65498;50.916;4.698;2022-12-18T02:35:40;13.88;;;7.03;;
76606;SDS011;65498;50.916;4.698;2022-12-18T02:38:08;14.68;;;7.55;;
76606;SDS011;65498;50.916;4.698;2022-12-18T02:40:37;15.68;;;7.17;;
76606;SDS011;65498;50.916;4.698;2022-12-18T02:43:11;12.78;;;6.50;;
76606;SDS011;65498;50.916;4.698;2022-12-18T02:45:47;13.85;;;7.67;;
76606;SDS011;65498;50.916;4.698;2022-12-18T02:48:17;13.35;;;7.40;;
76606;SDS011;65498;50.916;4.698;2022-12-18T02:51:32;13.00;;;7.20;;
76606;SDS011;65498;50.916;4.698;2022-12-18T02:53:24;13.03;;;7.65;;
76606;SDS011;65498;50.916;4.698;2022-12-18T02:59:02;13.08;;;6.45;;
76606;SDS011;65498;50.916;4.698;2022-12-18T03:05:12;13.60;;;7.50;;
76606;SDS011;65498;50.916;4.698;2022-12-18T03:06:54;11.85;;;6.65;;
76606;SDS011;65498;50.916;4.698;2022-12-18T03:09:26;11.88;;;6.87;;
76606;SDS011;65498;50.916;4.698;2022-12-18T03:14:55;11.40;;;7.03;;
76606;SDS011;65498;50.916;4.698;2022-12-18T03:17:27;11.73;;;6.53;;
76606;SDS011;65498;50.916;4.698;2022-12-18T03:19:59;12.15;;;6.97;;
76606;SDS011;65498;50.916;4.698;2022-12-18T03:22:29;13.68;;;8.08;;
76606;SDS011;65498;50.916;4.698;2022-12-18T03:25:00;14.25;;;6.92;;
76606;SDS011;65498;50.916;4.698;2022-12-18T03:27:31;10.55;;;6.47;;
76606;SDS011;65498;50.916;4.698;2022-12-18T03:30:06;11.10;;;6.58;;
76606;SDS011;65498;50.916;4.698;2022-12-18T03:35:18;10.80;;;6.47;;
76606;SDS011;65498;50.916;4.698;2022-12-18T03:37:47;12.20;;;6.60;;
76606;SDS011;65498;50.916;4.698;2022-12-18T03:40:15;10.85;;;6.33;;
76606;SDS011;65498;50.916;4.698;2022-12-18T03:42:53;10.98;;;6.25;;
76606;SDS011;65498;50.916;4.698;2022-12-18T03:45:32;12.85;;;6.60;;
76606;SDS011;65498;50.916;4.698;2022-12-18T03:48:48;11.68;;;6.62;;
76606;SDS011;65498;50.916;4.698;2022-12-18T03:50:57;10.13;;;6.20;;
76606;SDS011;65498;50.916;4.698;2022-12-18T03:53:41;10.53;;;6.20;;
76606;SDS011;65498;50.916;4.698;2022-12-18T03:56:15;13.78;;;7.03;;
76606;SDS011;65498;50.916;4.698;2022-12-18T03:58:44;11.95;;;7.08;;
76606;SDS011;65498;50.916;4.698;2022-12-18T04:01:15;11.08;;;6.50;;
76606;SDS011;65498;50.916;4.698;2022-12-18T04:03:44;11.05;;;6.75;;
76606;SDS011;65498;50.916;4.698;2022-12-18T04:06:15;12.55;;;6.25;;
76606;SDS011;65498;50.916;4.698;2022-12-18T04:08:43;11.97;;;6.53;;
76606;SDS011;65498;50.916;4.698;2022-12-18T04:11:12;11.25;;;6.87;;
76606;SDS011;65498;50.916;4.698;2022-12-18T04:13:39;11.18;;;6.20;;
76606;SDS011;65498;50.916;4.698;2022-12-18T04:16:09;10.65;;;5.87;;
76606;SDS011;65498;50.916;4.698;2022-12-18T04:18:36;10.20;;;5.75;;
76606;SDS011;65498;50.916;4.698;2022-12-18T04:21:04;10.82;;;5.80;;
76606;SDS011;65498;50.916;4.698;2022-12-18T04:23:32;10.98;;;5.90;;
76606;SDS011;65498;50.916;4.698;2022-12-18T04:25:59;12.37;;;6.58;;
76606;SDS011;65498;50.916;4.698;2022-12-18T04:28:27;11.45;;;6.47;;
76606;SDS011;65498;50.916;4.698;2022-12-18T04:30:54;10.00;;;6.12;;
76606;SDS011;65498;50.916;4.698;2022-12-18T04:33:22;12.25;;;7.55;;
76606;SDS011;65498;50.916;4.698;2022-12-18T04:35:49;10.50;;;6.08;;
76606;SDS011;65498;50.916;4.698;2022-12-18T04:38:17;10.43;;;6.92;;
76606;SDS011;65498;50.916;4.698;2022-12-18T04:40:44;10.20;;;5.97;;
76606;SDS011;65498;50.916;4.698;2022-12-18T04:43:12;11.12;;;6.37;;
76606;SDS011;65498;50.916;4.698;2022-12-18T04:45:39;10.90;;;6.55;;
76606;SDS011;65498;50.916;4.698;2022-12-18T04:48:07;10.38;;;6.08;;
76606;SDS011;65498;50.916;4.698;2022-12-18T04:50:34;10.08;;;5.42;;
76606;SDS011;65498;50.916;4.698;2022-12-18T04:53:02;9.83;;;5.67;;
76606;SDS011;65498;50.916;4.698;2022-12-18T04:55:30;10.35;;;6.08;;
76606;SDS011;65498;50.916;4.698;2022-12-18T04:57:57;11.12;;;6.22;;
76606;SDS011;65498;50.916;4.698;2022-12-18T05:00:25;10.28;;;6.50;;
76606;SDS011;65498;50.916;4.698;2022-12-18T05:02:52;10.35;;;5.87;;
76606;SDS011;65498;50.916;4.698;2022-12-18T05:05:20;13.90;;;6.70;;
76606;SDS011;65498;50.916;4.698;2022-12-18T05:07:47;10.30;;;6.10;;
76606;SDS011;65498;50.916;4.698;2022-12-18T05:10:15;11.15;;;6.87;;
76606;SDS011;65498;50.916;4.698;2022-12-18T05:12:42;9.25;;;5.47;;
76606;SDS011;65498;50.916;4.698;2022-12-18T05:15:29;11.53;;;6.15;;
76606;SDS011;65498;50.916;4.698;2022-12-18T05:17:58;10.95;;;6.15;;
76606;SDS011;65498;50.916;4.698;2022-12-18T05:20:26;10.60;;;6.23;;
76606;SDS011;65498;50.916;4.698;2022-12-18T05:22:55;10.88;;;6.10;;
76606;SDS011;65498;50.916;4.698;2022-12-18T05:25:22;11.12;;;6.15;;
76606;SDS011;65498;50.916;4.698;2022-12-18T05:27:50;11.25;;;5.97;;
76606;SDS011;65498;50.916;4.698;2022-12-18T05:30:18;11.25;;;5.75;;
76606;SDS011;65498;50.916;4.698;2022-12-18T05:32:45;12.40;;;6.62;;
76606;SDS011;65498;50.916;4.698;2022-12-18T05:35:13;11.25;;;6.33;;
76606;SDS011;65498;50.916;4.698;2022-12-18T05:37:41;9.00;;;5.47;;
76606;SDS011;65498;50.916;4.698;2022-12-18T05:40:08;10.72;;;6.10;;
76606;SDS011;65498;50.916;4.698;2022-12-18T05:42:37;9.60;;;5.70;;
76606;SDS011;65498;50.916;4.698;2022-12-18T05:45:05;9.30;;;6.00;;
76606;SDS011;65498;50.916;4.698;2022-12-18T05:47:33;10.85;;;5.95;;
76606;SDS011;65498;50.916;4.698;2022-12-18T05:50:00;10.95;;;5.72;;
76606;SDS011;65498;50.916;4.698;2022-12-18T05:52:28;11.38;;;6.10;;
76606;SDS011;65498;50.916;4.698;2022-12-18T05:54:56;10.23;;;5.67;;
76606;SDS011;65498;50.916;4.698;2022-12-18T05:57:24;11.57;;;6.92;;
76606;SDS011;65498;50.916;4.698;2022-12-18T05:59:52;10.45;;;5.83;;
76606;SDS011;65498;50.916;4.698;2022-12-18T06:02:20;10.82;;;5.80;;
76606;SDS011;65498;50.916;4.698;2022-12-18T06:04:47;12.47;;;6.00;;
76606;SDS011;65498;50.916;4.698;2022-12-18T06:07:15;10.75;;;6.17;;
76606;SDS011;65498;50.916;4.698;2022-12-18T06:09:43;11.30;;;6.00;;
76606;SDS011;65498;50.916;4.698;2022-12-18T06:12:10;11.22;;;6.42;;
76606;SDS011;65498;50.916;4.698;2022-12-18T06:14:38;11.33;;;6.05;;
76606;SDS011;65498;50.916;4.698;2022-12-18T06:17:05;11.08;;;6.08;;
76606;SDS011;65498;50.916;4.698;2022-12-18T06:19:33;10.38;;;5.78;;
76606;SDS011;65498;50.916;4.698;2022-12-18T06:22:00;10.60;;;6.03;;
76606;SDS011;65498;50.916;4.698;2022-12-18T06:24:28;9.70;;;5.80;;
76606;SDS011;65498;50.916;4.698;2022-12-18T06:26:56;10.15;;;5.60;;
76606;SDS011;65498;50.916;4.698;2022-12-18T06:29:24;10.85;;;6.22;;
76606;SDS011;65498;50.916;4.698;2022-12-18T06:31:51;10.38;;;6.08;;
76606;SDS011;65498;50.916;4.698;2022-12-18T06:34:19;9.98;;;5.70;;
76606;SDS011;65498;50.916;4.698;2022-12-18T06:36:46;9.28;;;5.22;;
76606;SDS011;65498;50.916;4.698;2022-12-18T06:39:14;9.08;;;5.08;;
76606;SDS011;65498;50.916;4.698;2022-12-18T06:41:41;9.45;;;5.50;;
76606;SDS011;65498;50.916;4.698;2022-12-18T06:44:09;10.50;;;5.53;;
76606;SDS011;65498;50.916;4.698;2022-12-18T06:46:36;9.78;;;5.97;;
76606;SDS011;65498;50.916;4.698;2022-12-18T06:49:04;9.95;;;5.62;;
76606;SDS011;65498;50.916;4.698;2022-12-18T06:51:32;9.80;;;5.97;;
76606;SDS011;65498;50.916;4.698;2022-12-18T06:53:59;10.13;;;5.33;;
76606;SDS011;65498;50.916;4.698;2022-12-18T06:56:27;9.75;;;5.65;;
76606;SDS011;65498;50.916;4.698;2022-12-18T06:58:55;10.18;;;5.33;;
76606;SDS011;65498;50.916;4.698;2022-12-18T07:01:22;12.73;;;5.22;;
76606;SDS011;65498;50.916;4.698;2022-12-18T07:03:54;9.90;;;5.53;;
76606;SDS011;65498;50.916;4.698;2022-12-18T07:06:23;9.23;;;5.42;;
76606;SDS011;65498;50.916;4.698;2022-12-18T07:08:52;8.93;;;5.03;;
76606;SDS011;65498;50.916;4.698;2022-12-18T07:11:21;9.73;;;4.92;;
76606;SDS011;65498;50.916;4.698;2022-12-18T07:13:48;9.63;;;5.80;;
76606;SDS011;65498;50.916;4.698;2022-12-18T07:16:17;10.20;;;5.70;;
76606;SDS011;65498;50.916;4.698;2022-12-18T07:18:46;10.60;;;5.50;;
76606;SDS011;65498;50.916;4.698;2022-12-18T07:21:15;9.08;;;5.08;;
76606;SDS011;65498;50.916;4.698;2022-12-18T07:23:45;9.08;;;4.60;;
76606;SDS011;65498;50.916;4.698;2022-12-18T07:26:13;9.20;;;5.22;;
76606;SDS011;65498;50.916;4.698;2022-12-18T07:28:43;10.30;;;5.20;;
76606;SDS011;65498;50.916;4.698;2022-12-18T07:31:11;9.95;;;5.28;;
76606;SDS011;65498;50.916;4.698;2022-12-18T07:33:41;10.72;;;5.17;;
76606;SDS011;65498;50.916;4.698;2022-12-18T07:36:09;9.73;;;5.00;;
76606;SDS011;65498;50.916;4.698;2022-12-18T07:38:37;9.15;;;5.17;;
76606;SDS011;65498;50.916;4.698;2022-12-18T07:41:09;9.00;;;4.83;;
76606;SDS011;65498;50.916;4.698;2022-12-18T07:43:38;9.35;;;5.20;;
76606;SDS011;65498;50.916;4.698;2022-12-18T07:46:06;9.65;;;5.17;;
76606;SDS011;65498;50.916;4.698;2022-12-18T07:48:35;10.10;;;5.13;;
76606;SDS011;65498;50.916;4.698;2022-12-18T07:51:04;10.20;;;5.25;;
76606;SDS011;65498;50.916;4.698;2022-12-18T07:53:34;9.70;;;4.95;;
76606;SDS011;65498;50.916;4.698;2022-12-18T07:56:03;11.12;;;5.25;;
76606;SDS011;65498;50.916;4.698;2022-12-18T07:58:35;9.40;;;4.78;;
76606;SDS011;65498;50.916;4.698;2022-12-18T08:01:11;11.33;;;5.70;;
76606;SDS011;65498;50.916;4.698;2022-12-18T08:03:36;10.98;;;5.35;;
76606;SDS011;65498;50.916;4.698;2022-12-18T08:06:06;10.10;;;4.95;;
76606;SDS011;65498;50.916;4.698;2022-12-18T08:08:35;13.15;;;5.10;;
76606;SDS011;65498;50.916;4.698;2022-12-18T08:11:03;9.05;;;4.92;;
76606;SDS011;65498;50.916;4.698;2022-12-18T08:13:31;9.20;;;5.53;;
76606;SDS011;65498;50.916;4.698;2022-12-18T08:15:59;9.93;;;5.30;;
76606;SDS011;65498;50.916;4.698;2022-12-18T08:20:55;8.63;;;4.50;;
76606;SDS011;65498;50.916;4.698;2022-12-18T08:23:23;9.53;;;4.53;;
76606;SDS011;65498;50.916;4.698;2022-12-18T08:25:50;9.60;;;4.83;;
76606;SDS011;65498;50.916;4.698;2022-12-18T08:28:18;9.48;;;5.05;;
76606;SDS011;65498;50.916;4.698;2022-12-18T08:30:46;9.33;;;4.22;;
76606;SDS011;65498;50.916;4.698;2022-12-18T08:33:15;8.40;;;4.40;;
76606;SDS011;65498;50.916;4.698;2022-12-18T08:35:42;8.90;;;5.12;;
76606;SDS011;65498;50.916;4.698;2022-12-18T08:38:10;10.48;;;4.75;;
76606;SDS011;65498;50.916;4.698;2022-12-18T08:40:37;9.73;;;5.47;;
76606;SDS011;65498;50.916;4.698;2022-12-18T08:43:05;8.33;;;4.83;;
76606;SDS011;65498;50.916;4.698;2022-12-18T08:45:51;11.03;;;5.42;;
76606;SDS011;65498;50.916;4.698;2022-12-18T08:48:20;12.13;;;4.90;;
76606;SDS011;65498;50.916;4.698;2022-12-18T08:50:57;9.05;;;4.50;;
76606;SDS011;65498;50.916;4.698;2022-12-18T08:53:26;9.33;;;5.47;;
76606;SDS011;65498;50.916;4.698;2022-12-18T08:55:53;9.53;;;5.12;;
76606;SDS011;65498;50.916;4.698;2022-12-18T08:58:23;10.50;;;5.78;;
76606;SDS011;65498;50.916;4.698;2022-12-18T09:00:50;9.90;;;5.22;;
76606;SDS011;65498;50.916;4.698;2022-12-18T09:03:18;9.30;;;5.12;;
76606;SDS011;65498;50.916;4.698;2022-12-18T09:05:48;9.00;;;4.80;;
76606;SDS011;65498;50.916;4.698;2022-12-18T09:08:16;9.33;;;5.20;;
76606;SDS011;65498;50.916;4.698;2022-12-18T09:10:44;10.50;;;5.95;;
76606;SDS011;65498;50.916;4.698;2022-12-18T09:13:13;10.03;;;5.58;;
76606;SDS011;65498;50.916;4.698;2022-12-18T09:15:43;9.90;;;5.78;;
76606;SDS011;65498;50.916;4.698;2022-12-18T09:20:39;9.88;;;5.03;;
76606;SDS011;65498;50.916;4.698;2022-12-18T09:23:07;10.10;;;5.30;;
76606;SDS011;65498;50.916;4.698;2022-12-18T09:25:35;11.40;;;5.72;;
76606;SDS011;65498;50.916;4.698;2022-12-18T09:28:04;8.25;;;4.87;;
76606;SDS011;65498;50.916;4.698;2022-12-18T09:33:00;9.63;;;4.83;;
76606;SDS011;65498;50.916;4.698;2022-12-18T09:35:28;9.10;;;5.30;;
76606;SDS011;65498;50.916;4.698;2022-12-18T09:37:55;10.05;;;5.30;;
76606;SDS011;65498;50.916;4.698;2022-12-18T09:40:23;10.25;;;5.53;;
76606;SDS011;65498;50.916;4.698;2022-12-18T09:42:54;8.55;;;4.70;;
76606;SDS011;65498;50.916;4.698;2022-12-18T09:45:24;9.33;;;5.37;;
76606;SDS011;65498;50.916;4.698;2022-12-18T09:47:52;9.25;;;4.72;;
76606;SDS011;65498;50.916;4.698;2022-12-18T09:50:23;9.90;;;4.72;;
76606;SDS011;65498;50.916;4.698;2022-12-18T09:52:56;7.62;;;4.30;;
76606;SDS011;65498;50.916;4.698;2022-12-18T09:55:36;9.35;;;4.65;;
76606;SDS011;65498;50.916;4.698;2022-12-18T09:58:26;9.93;;;5.03;;
76606;SDS011;65498;50.916;4.698;2022-12-18T10:00:33;10.00;;;5.30;;
76606;SDS011;65498;50.916;4.698;2022-12-18T10:03:08;10.10;;;5.17;;
76606;SDS011;65498;50.916;4.698;2022-12-18T10:05:51;10.40;;;6.10;;
76606;SDS011;65498;50.916;4.698;2022-12-18T10:11:29;11.12;;;5.53;;
76606;SDS011;65498;50.916;4.698;2022-12-18T10:14:06;10.13;;;5.62;;
76606;SDS011;65498;50.916;4.698;2022-12-18T10:16:35;10.10;;;5.67;;
76606;SDS011;65498;50.916;4.698;2022-12-18T10:24:40;9.98;;;5.65;;
76606;SDS011;65498;50.916;4.698;2022-12-18T10:27:18;12.30;;;6.80;;
76606;SDS011;65498;50.916;4.698;2022-12-18T10:29:51;10.40;;;5.33;;
76606;SDS011;65498;50.916;4.698;2022-12-18T10:32:28;12.18;;;5.70;;
76606;SDS011;65498;50.916;4.698;2022-12-18T10:34:56;11.22;;;5.58;;
76606;SDS011;65498;50.916;4.698;2022-12-18T10:37:26;10.45;;;4.95;;
76606;SDS011;65498;50.916;4.698;2022-12-18T10:40:11;10.75;;;5.33;;
76606;SDS011;65498;50.916;4.698;2022-12-18T10:42:41;10.45;;;5.33;;
76606;SDS011;65498;50.916;4.698;2022-12-18T10:45:14;10.60;;;5.05;;
76606;SDS011;65498;50.916;4.698;2022-12-18T10:47:46;11.38;;;5.35;;
76606;SDS011;65498;50.916;4.698;2022-12-18T10:50:31;9.73;;;5.00;;
76606;SDS011;65498;50.916;4.698;2022-12-18T10:53:01;8.95;;;4.40;;
76606;SDS011;65498;50.916;4.698;2022-12-18T10:55:32;10.93;;;5.00;;
76606;SDS011;65498;50.916;4.698;2022-12-18T11:03:41;10.80;;;5.42;;
76606;SDS011;65498;50.916;4.698;2022-12-18T11:06:23;11.90;;;5.45;;
76606;SDS011;65498;50.916;4.698;2022-12-18T11:09:02;11.05;;;6.05;;
76606;SDS011;65498;50.916;4.698;2022-12-18T11:11:32;9.43;;;4.75;;
76606;SDS011;65498;50.916;4.698;2022-12-18T11:14:11;11.22;;;5.10;;
76606;SDS011;65498;50.916;4.698;2022-12-18T11:16:45;8.68;;;5.10;;
76606;SDS011;65498;50.916;4.698;2022-12-18T11:21:57;8.88;;;4.90;;
76606;SDS011;65498;50.916;4.698;2022-12-18T11:24:36;9.13;;;4.65;;
76606;SDS011;65498;50.916;4.698;2022-12-18T11:27:03;11.03;;;4.42;;
76606;SDS011;65498;50.916;4.698;2022-12-18T11:29:34;8.93;;;4.42;;
76606;SDS011;65498;50.916;4.698;2022-12-18T11:32:19;8.18;;;4.58;;
76606;SDS011;65498;50.916;4.698;2022-12-18T11:37:11;7.12;;;3.70;;
76606;SDS011;65498;50.916;4.698;2022-12-18T11:39:49;8.25;;;4.00;;
76606;SDS011;65498;50.916;4.698;2022-12-18T11:45:25;8.60;;;4.37;;
76606;SDS011;65498;50.916;4.698;2022-12-18T11:50:49;7.72;;;4.00;;
76606;SDS011;65498;50.916;4.698;2022-12-18T11:53:19;7.95;;;3.90;;
76606;SDS011;65498;50.916;4.698;2022-12-18T11:58:50;8.13;;;4.55;;
76606;SDS011;65498;50.916;4.698;2022-12-18T12:06:43;9.28;;;3.62;;
76606;SDS011;65498;50.916;4.698;2022-12-18T12:12:13;9.68;;;3.65;;
76606;SDS011;65498;50.916;4.698;2022-12-18T12:17:22;7.65;;;3.55;;
76606;SDS011;65498;50.916;4.698;2022-12-18T12:22:42;8.15;;;3.77;;
76606;SDS011;65498;50.916;4.698;2022-12-18T12:25:30;7.20;;;3.30;;
76606;SDS011;65498;50.916;4.698;2022-12-18T12:33:48;7.90;;;3.67;;
76606;SDS011;65498;50.916;4.698;2022-12-18T12:36:22;8.45;;;4.85;;
76606;SDS011;65498;50.916;4.698;2022-12-18T12:39:06;12.55;;;4.33;;
76606;SDS011;65498;50.916;4.698;2022-12-18T12:41:33;8.20;;;3.47;;
76606;SDS011;65498;50.916;4.698;2022-12-18T12:44:23;7.47;;;3.67;;
76606;SDS011;65498;50.916;4.698;2022-12-18T12:46:47;8.00;;;3.67;;
76606;SDS011;65498;50.916;4.698;2022-12-18T12:49:18;8.55;;;3.33;;
76606;SDS011;65498;50.916;4.698;2022-12-18T12:51:58;8.58;;;4.10;;
76606;SDS011;65498;50.916;4.698;2022-12-18T12:54:34;8.60;;;3.80;;
76606;SDS011;65498;50.916;4.698;2022-12-18T13:00:00;7.97;;;3.37;;
76606;SDS011;65498;50.916;4.698;2022-12-18T13:08:03;8.30;;;3.17;;
76606;SDS011;65498;50.916;4.698;2022-12-18T13:10:34;6.72;;;3.30;;
76606;SDS011;65498;50.916;4.698;2022-12-18T13:13:13;7.15;;;3.65;;
76606;SDS011;65498;50.916;4.698;2022-12-18T13:18:32;8.23;;;3.95;;
76606;SDS011;65498;50.916;4.698;2022-12-18T13:23:32;8.13;;;3.50;;
76606;SDS011;65498;50.916;4.698;2022-12-18T13:34:37;8.90;;;4.20;;
76606;SDS011;65498;50.916;4.698;2022-12-18T13:36:49;11.12;;;4.03;;
76606;SDS011;65498;50.916;4.698;2022-12-18T13:41:49;7.92;;;3.77;;
76606;SDS011;65498;50.916;4.698;2022-12-18T13:44:26;9.28;;;4.40;;
76606;SDS011;65498;50.916;4.698;2022-12-18T13:47:01;10.78;;;4.72;;
76606;SDS011;65498;50.916;4.698;2022-12-18T13:52:19;35.92;;;10.80;;
76606;SDS011;65498;50.916;4.698;2022-12-18T13:54:51;20.90;;;7.65;;
76606;SDS011;65498;50.916;4.698;2022-12-18T14:02:48;14.60;;;6.83;;
76606;SDS011;65498;50.916;4.698;2022-12-18T14:05:27;12.05;;;5.83;;
76606;SDS011;65498;50.916;4.698;2022-12-18T14:08:00;12.07;;;5.62;;
76606;SDS011;65498;50.916;4.698;2022-12-18T14:10:32;16.70;;;6.03;;
76606;SDS011;65498;50.916;4.698;2022-12-18T14:13:04;15.53;;;5.90;;
76606;SDS011;65498;50.916;4.698;2022-12-18T14:15:39;15.72;;;5.22;;
76606;SDS011;65498;50.916;4.698;2022-12-18T14:20:50;19.98;;;5.78;;
76606;SDS011;65498;50.916;4.698;2022-12-18T14:26:23;13.60;;;4.80;;
76606;SDS011;65498;50.916;4.698;2022-12-18T14:28:55;10.38;;;5.25;;
76606;SDS011;65498;50.916;4.698;2022-12-18T14:31:25;14.20;;;4.58;;
76606;SDS011;65498;50.916;4.698;2022-12-18T14:33:53;14.10;;;5.22;;
76606;SDS011;65498;50.916;4.698;2022-12-18T14:36:27;11.18;;;4.60;;
76606;SDS011;65498;50.916;4.698;2022-12-18T14:38:52;12.58;;;4.67;;
76606;SDS011;65498;50.916;4.698;2022-12-18T14:41:21;9.50;;;4.20;;
76606;SDS011;65498;50.916;4.698;2022-12-18T14:43:51;12.25;;;4.75;;
76606;SDS011;65498;50.916;4.698;2022-12-18T14:49:03;8.90;;;4.20;;
76606;SDS011;65498;50.916;4.698;2022-12-18T14:51:56;11.80;;;4.30;;
76606;SDS011;65498;50.916;4.698;2022-12-18T14:54:22;11.28;;;4.95;;
76606;SDS011;65498;50.916;4.698;2022-12-18T14:57:37;9.93;;;4.23;;
76606;SDS011;65498;50.916;4.698;2022-12-18T14:59:38;9.33;;;3.90;;
76606;SDS011;65498;50.916;4.698;2022-12-18T15:02:10;9.25;;;4.12;;
76606;SDS011;65498;50.916;4.698;2022-12-18T15:04:39;12.63;;;4.58;;
76606;SDS011;65498;50.916;4.698;2022-12-18T15:07:11;10.15;;;4.62;;
76606;SDS011;65498;50.916;4.698;2022-12-18T15:09:41;8.98;;;4.15;;
76606;SDS011;65498;50.916;4.698;2022-12-18T15:12:20;8.13;;;4.12;;
76606;SDS011;65498;50.916;4.698;2022-12-18T15:14:49;10.53;;;4.58;;
76606;SDS011;65498;50.916;4.698;2022-12-18T15:17:18;11.03;;;3.80;;
76606;SDS011;65498;50.916;4.698;2022-12-18T15:19:48;10.38;;;4.70;;
76606;SDS011;65498;50.916;4.698;2022-12-18T15:24:49;8.70;;;3.98;;
76606;SDS011;65498;50.916;4.698;2022-12-18T15:27:37;9.73;;;4.25;;
76606;SDS011;65498;50.916;4.698;2022-12-18T15:32:37;9.10;;;5.05;;
76606;SDS011;65498;50.916;4.698;2022-12-18T15:37:39;8.75;;;4.50;;
76606;SDS011;65498;50.916;4.698;2022-12-18T15:40:16;11.90;;;5.20;;
76606;SDS011;65498;50.916;4.698;2022-12-18T15:42:40;9.95;;;5.28;;
76606;SDS011;65498;50.916;4.698;2022-12-18T15:45:26;11.10;;;5.67;;
76606;SDS011;65498;50.916;4.698;2022-12-18T15:47:55;10.58;;;5.00;;
76606;SDS011;65498;50.916;4.698;2022-12-18T15:50:23;9.40;;;4.92;;
76606;SDS011;65498;50.916;4.698;2022-12-18T15:52:52;10.38;;;5.05;;
76606;SDS011;65498;50.916;4.698;2022-12-18T15:55:22;9.58;;;5.17;;
76606;SDS011;65498;50.916;4.698;2022-12-18T15:58:07;10.23;;;5.70;;
76606;SDS011;65498;50.916;4.698;2022-12-18T16:00:37;10.30;;;5.78;;
76606;SDS011;65498;50.916;4.698;2022-12-18T16:03:06;9.88;;;5.42;;
76606;SDS011;65498;50.916;4.698;2022-12-18T16:05:35;11.85;;;5.67;;
76606;SDS011;65498;50.916;4.698;2022-12-18T16:08:02;10.03;;;5.03;;
76606;SDS011;65498;50.916;4.698;2022-12-18T16:10:30;9.43;;;5.20;;
76606;SDS011;65498;50.916;4.698;2022-12-18T16:12:58;10.40;;;5.33;;
76606;SDS011;65498;50.916;4.698;2022-12-18T16:15:25;9.73;;;5.37;;
76606;SDS011;65498;50.916;4.698;2022-12-18T16:17:53;10.32;;;5.12;;
76606;SDS011;65498;50.916;4.698;2022-12-18T16:20:21;10.30;;;5.70;;
76606;SDS011;65498;50.916;4.698;2022-12-18T16:22:49;11.43;;;5.65;;
76606;SDS011;65498;50.916;4.698;2022-12-18T16:25:19;9.50;;;5.40;;
76606;SDS011;65498;50.916;4.698;2022-12-18T16:27:48;9.35;;;5.08;;
76606;SDS011;65498;50.916;4.698;2022-12-18T16:30:16;8.60;;;4.75;;
76606;SDS011;65498;50.916;4.698;2022-12-18T16:32:46;9.35;;;5.05;;
76606;SDS011;65498;50.916;4.698;2022-12-18T16:35:14;9.00;;;5.25;;
76606;SDS011;65498;50.916;4.698;2022-12-18T16:37:42;10.43;;;5.17;;
76606;SDS011;65498;50.916;4.698;2022-12-18T16:40:11;9.30;;;5.20;;
76606;SDS011;65498;50.916;4.698;2022-12-18T16:42:42;10.55;;;6.03;;
76606;SDS011;65498;50.916;4.698;2022-12-18T16:45:11;10.32;;;5.35;;
76606;SDS011;65498;50.916;4.698;2022-12-18T16:47:41;9.18;;;5.37;;
76606;SDS011;65498;50.916;4.698;2022-12-18T16:50:09;9.60;;;5.45;;
76606;SDS011;65498;50.916;4.698;2022-12-18T16:52:37;9.88;;;5.40;;
76606;SDS011;65498;50.916;4.698;2022-12-18T16:55:06;9.08;;;5.10;;
76606;SDS011;65498;50.916;4.698;2022-12-18T16:57:34;10.70;;;5.62;;
76606;SDS011;65498;50.916;4.698;2022-12-18T17:00:02;10.00;;;4.92;;